Ride Results

Glen Innes Endurance (18-06-2016)
Ride distance: 80.0 km

Outcomes - Glen Innes Endurance (18-06-2016)
Division No. of Entries Retired / DNE Completed Withdrawn Ineligible V/O Percentage Completed
HW 8 - 6 1 - 1 75.00%
MW 19 - 15 2 - 2 78.95%
LW 13 - 10 1 - 2 76.92%
JN 8 - 7 - - 1 87.50%
Totals 48 - 38 4 - 6 79.17%
Results - Glen Innes Endurance (18-06-2016)
No. Rider Horse Place Time Leg Speeds Total
Km/Hr
H/R bpm
Heavyweight
238 Rod Field Brookleigh Louise 1 5:07:00 16.4, 14.9 15.64 36, 48, 48 (Avg:48)
210 Phil Coleman Rainbows Reach Dark N Stormy 2 6:11:00 13.7, 12.1 12.94 36, 42, 44 (Avg:43)
203 Steven McQueen Traveler 3 6:29:00 12.6, 12.0 12.34 31, 40, 55 (Avg:47)
221 Gary Surch Eus Warman 4 6:33:00 13.1, 11.4 12.21 40, 48, 44 (Avg:46)
259 Allan Caslick Ithilien Elendelle 5 7:21:00 11.7, 10.1 10.88 36, 42, 44 (Avg:43)
230 Keith Sumpner Fonda 6 7:22:00 12.5, 9.5 10.86 34, 43, 50 (Avg:46)
264 Tami Parnell Cherox Kenya Withdrawn L1 0:00:00 - - 30, 48 (Avg:48)
226 Rhys Rayner Summervale Afra's Finito Lame L1 0:00:00 12.6 - 36, 43 (Avg:43)
Middleweight
257 Elsie Newsome Mimosa Ellira 1 5:03:00 17.6, 14.3 15.84 39, 42, 44 (Avg:43)
267 Angela Ward Future Dreams Maximus 1 5:03:00 18.0, 14.1 15.84 40, 51, 59 (Avg:55)
260 Tracey Hutchinson Cherox Merlot 3 5:05:00 16.4, 15.0 15.74 26, 46, 48 (Avg:47)
255 Hannah McQueen Elfar Kaspa 3 5:05:00 16.7, 14.8 15.74 38, 48, 52 (Avg:50)
236 Christopher Schofield Briallyn Alimah 5 6:07:00 13.2, 12.9 13.08 36, 42, 42 (Avg:42)
202 Robyn McIntosh-Shoesmith Phoebe 6 6:12:00 12.7, 13.0 12.90 40, 40, 48 (Avg:44)
233 Brook Sample Brookleigh Dylan 7 6:17:00 13.8, 11.7 12.73 38, 52, 44 (Avg:48)
219 Cora Becker Undurra Zorro 8 6:32:00 13.1, 11.4 12.24 36, 44, 46 (Avg:45)
229 Sandi Brown Indigo Dreaming 9 6:39:00 12.4, 11.6 12.03 40, 48, 60 (Avg:54)
204 Derryn Nix Homeleigh Mountain Nazeem 10 6:54:00 11.2, 11.9 11.59 38, 42, 46 (Avg:44)
225 Nicolle Brown Kie-Al Nasarian 11 7:18:00 12.5, 9.7 10.96 40, 44, 41 (Avg:42)
240 Jennifer Caslick Madgwick Diplomatic Lip 12 7:21:00 11.7, 10.1 10.88 38, 44, 50 (Avg:47)
252 Jennifer Annetts Churinga Gulf Dream 13 7:28:00 10.4, 10.9 10.71 36, 40, 47 (Avg:43)
247 Judith Burton Woodbourne Kitty Hawk 14 7:48:00 10.4, 10.0 10.26 44, 35, 46 (Avg:40)
211 Lexi Morton Shakira BDA 15 7:59:00 10.5, 9.5 10.02 38, 44, 49 (Avg:46)
213 Jo Bailey Churinga Firestorm Lame L1 0:00:00 10.4 - 36, 42, 50 (Avg:46)
227 Ian Davidson Woodbourne The Dealer Withdrawn L1 0:00:00 - - 42, 44 (Avg:44)
274 Raymond Griffiths Cherox Zafina Withdrawn L1 0:00:00 - - 44, 52 (Avg:52)
214 Ben Hudson Webbs Creek Lawson Lame L1 0:00:00 11.8 - 40, 42, 42 (Avg:42)
Lightweight
207 Melissa McCoullough Forbes View Sienna 1 5:02:00 18.0, 14.2 15.89 36, 44, 50 (Avg:47)
228 Shannen Thorsby Kamikaze Jacob 2 5:39:00 14.7, 13.6 14.16 38, 46, 50 (Avg:48)
215 Rachel Stephens Morwenna Glen Star 3 6:09:00 13.2, 12.7 13.01 49, 46, 49 (Avg:47)
209 Ros Ryan Rainbows Reach Scout 4 6:11:00 13.7, 12.1 12.94 32, 36, 44 (Avg:40)
235 Jess Langridge Brookleigh Ricardo 5 6:18:00 13.2, 12.1 12.70 35, 41, 51 (Avg:46)
234 Anna Wyroslak Anglesea Gabriella 5 6:18:00 13.2, 12.1 12.70 40, 36, 52 (Avg:44)
243 Xanthe Webb Evelyn te 7 6:29:00 12.8, 11.8 12.34 36, 44, 48 (Avg:46)
271 Clare Fleming Aloha Desert Thor 8 6:33:00 13.4, 11.2 12.21 32, 41, 48 (Avg:44)
205 Carly Nix Homeleigh Mountain Kosmo 9 6:54:00 11.2, 11.9 11.59 40, 48, 59 (Avg:53)
220 Christal Rizk Dream Raider 10 7:58:00 10.5, 9.5 10.04 52, 46, 52 (Avg:49)
222 Pandora Bevan Lindall Sarina Withdrawn L1 0:00:00 - - 36, 38, 36 (Avg:37)
231 Shelley-ann Kimber Sterling's Zena Lame L1 0:00:00 13.2 - 33, 38 (Avg:38)
223 Jan Wade Hillville Amigo Metabolics L1 0:00:00 12.5 - 38, 41, 46 (Avg:43)
Junior
254 Scarlet McQueen Kynnum Park Mr Epona 1 5:05:00 16.7, 14.8 15.74 34, 44, 42 (Avg:43)
232 Zac Sample Kidaman Ashquar 2 6:17:00 13.8, 11.7 12.73 41, 43, 44 (Avg:43)
239 Matty Sample Brookleigh Milo 2 6:17:00 13.8, 11.7 12.73 41, 44, 48 (Avg:46)
217 Anu Woodruff-Becker Count Shaunessy 4 6:32:00 13.1, 11.4 12.24 30, 40, 40 (Avg:40)
270 Brooke Marshall Warrawee Gay Paree 5 6:33:00 13.4, 11.2 12.21 40, 46, 56 (Avg:51)
206 Talyn Nix Razorback Sugar N Spice 6 6:54:00 11.2, 11.9 11.59 31, 41, 40 (Avg:40)
212 Isabel Foster Apex Hustler 7 7:21:00 11.8, 10.0 10.88 40, 44, 51 (Avg:47)
216 Gabrielle Worth Douglas Lame L2 0:00:00 14.5, 14.0 - 30, 37, 43 (Avg:40)